Rechercher aéroport 
image banner adimage banner adimage banner ad
image banner ad

KVCB - Nut Tree

Situé à Vacaville, United States

ICAO - VCB, IATA -

Données fournies par Airmate  

Information générale

Coordonnées: N38°22'42" W121°57'40"
Élévation : 117 feet MSL.
Variation magnétique : 13° East
Voir autres Aéroports à California

Données opérationnelles

Special qualification required
Heure actuelle UTC:
Heure actuelle locale:
Météo
METAR: KVCB 020553Z AUTO VRB06KT 10SM CLR 22/09 A2999 RMK AO2 SLP153 T02170089 10356 20217 51013
Voir NOTAMs / SUP AIP / TFR affectant cet aéroport [VIEW]
Fréquences de communication: [VIEW]

Pistes:

Identifiant RWYQFULongueur (ft)Largeur (ft)SurfaceLDA (ft)
0234°470075ASPH
20214°470075ASPH

Coordonnées de l'aéroport

Adresse: Vacaville United States

Autres services d'aviation

Écoles de pilotage

Wings Flight School

Wings Flight School
Évalué:
Voir évaluations:
[VIEW]

Icon Aircraft Flight Center

Icon Aircraft Flight Center
info@iconaircraft.com+1(707)564-4000
Évalué:
Voir évaluations:
[VIEW]

Vue satellite de KVCB